Time;durP1;ratioP1;P1;durP2;ratioP2;P2;SDS_P1;SDS_P2;PMS_P1;PMS_P2;Temp;Humidity;BMP_temperature;BMP_pressure;BME280_temperature;BME280_humidity;BME280_pressure;Samples;Min_cycle;Max_cycle;Signal;HPM_P1;HPM_P2
2023/03/27 00:01:51;;;;;;;2.57;2.47;;;6.30;99.90;;;6.96;100.00;96768.03;5228477;28;20608;-65
2023/03/27 00:04:25;;;;;;;2.80;2.63;;;6.20;99.90;;;7.00;100.00;96769.94;5229385;28;20950;-65
2023/03/27 00:06:59;;;;;;;2.90;2.80;;;6.20;99.90;;;6.92;100.00;96772.06;5233958;28;20204;-65
2023/03/27 00:09:32;;;;;;;2.87;2.60;;;6.20;99.90;;;6.93;100.00;96778.03;5229773;28;20214;-65
2023/03/27 00:12:06;;;;;;;2.57;2.47;;;6.20;99.90;;;6.83;100.00;96771.56;5230849;28;20224;-64
2023/03/27 00:14:39;;;;;;;2.90;2.80;;;6.20;99.90;;;6.86;100.00;96778.50;5225591;28;20308;-65
2023/03/27 00:17:12;;;;;;;3.40;3.20;;;6.20;99.90;;;6.88;100.00;96784.53;5234598;28;20665;-65
2023/03/27 00:19:45;;;;;;;2.80;2.70;;;6.20;99.90;;;6.83;100.00;96786.81;5233857;28;20295;-66
2023/03/27 00:22:19;;;;;;;2.40;2.30;;;6.20;99.90;;;6.70;100.00;96780.22;5227422;28;20195;-66
2023/03/27 00:24:52;;;;;;;2.80;2.60;;;6.20;99.90;;;6.78;100.00;96785.69;5231753;28;20231;-65
2023/03/27 00:27:25;;;;;;;3.07;2.87;;;6.20;99.90;;;6.79;100.00;96787.47;5233851;28;20340;-65
2023/03/27 00:29:59;;;;;;;2.80;2.70;;;6.20;99.90;;;6.77;100.00;96794.97;5239724;28;20269;-65
2023/03/27 00:32:32;;;;;;;3.23;2.93;;;6.20;99.90;;;6.77;100.00;96789.91;5231936;28;20865;-66
2023/03/27 00:35:08;;;;;;;3.97;3.67;;;6.20;99.90;;;6.84;100.00;96786.03;5226367;28;21564;-65
2023/03/27 00:37:42;;;;;;;3.80;3.60;;;6.20;99.90;;;7.02;100.00;96783.59;5232437;28;20208;-64
2023/03/27 00:40:16;;;;;;;3.70;3.40;;;6.30;99.90;;;6.97;100.00;96790.09;5235818;28;20239;-65
2023/03/27 00:42:51;;;;;;;3.30;3.10;;;6.30;99.90;;;6.91;100.00;96784.69;5234018;28;20683;-64
2023/03/27 00:45:27;;;;;;;4.00;3.80;;;6.30;99.90;;;6.96;100.00;96789.22;5229295;28;20252;-66
2023/03/27 00:48:05;;;;;;;4.20;3.90;;;6.30;99.90;;;6.98;100.00;96795.28;5235193;28;20585;-65
2023/03/27 00:50:43;;;;;;;3.57;3.33;;;6.30;99.90;;;6.88;100.00;96798.09;5234349;28;20196;-65
2023/03/27 00:53:25;;;;;;;3.33;3.20;;;6.30;99.90;;;6.89;100.00;96792.22;5240275;28;20224;-65
2023/03/27 00:56:03;;;;;;;3.57;3.37;;;6.30;99.90;;;6.89;100.00;96804.06;5243552;28;20288;-65
2023/03/27 00:58:42;;;;;;;3.30;3.20;;;6.30;99.90;;;6.87;100.00;96800.56;5233239;28;20779;-64
2023/03/27 01:01:17;;;;;;;3.70;3.50;;;6.20;99.90;;;6.89;100.00;96812.53;5234311;28;20200;-66
2023/03/27 01:03:52;;;;;;;3.53;3.33;;;6.30;99.90;;;6.91;100.00;96810.09;5235592;28;20311;-65
2023/03/27 01:06:26;;;;;;;2.93;2.73;;;6.30;99.90;;;6.88;100.00;96820.97;5235595;28;20193;-65
2023/03/27 01:09:01;;;;;;;3.60;3.40;;;6.30;99.90;;;6.89;100.00;96821.81;5233166;28;20198;-65
2023/03/27 01:11:48;;;;;;;3.27;3.10;;;6.30;99.90;;;7.00;100.00;96820.75;5231401;28;20201;-66
2023/03/27 01:14:31;;;;;;;3.10;2.90;;;6.30;99.90;;;6.94;100.00;96828.03;5231245;28;20217;-65
2023/03/27 01:17:20;;;;;;;2.90;2.70;;;6.30;99.90;;;6.79;100.00;96834.84;5231488;28;20193;-64
2023/03/27 01:20:26;;;;;;;3.50;2.43;;;6.20;99.90;;;6.80;100.00;96851.81;5240879;28;20253;-64
2023/03/27 01:23:25;;;;;;;2.50;2.40;;;6.20;99.90;;;6.73;100.00;96841.31;5222827;28;20205;-65
2023/03/27 01:26:56;;;;;;;2.60;2.50;;;6.20;99.90;;;6.66;100.00;96849.38;5225979;28;20204;-65
2023/03/27 01:29:45;;;;;;;2.50;2.40;;;6.10;99.90;;;6.59;100.00;96856.59;5230121;28;20200;-64
2023/03/27 01:33:07;;;;;;;2.50;2.40;;;6.00;99.90;;;6.61;100.00;96860.97;5241449;28;20196;-65
2023/03/27 01:36:24;;;;;;;2.17;2.07;;;6.10;99.90;;;6.63;100.00;96861.91;5231511;28;20224;-64
2023/03/27 01:39:35;;;;;;;2.40;2.30;;;6.00;99.90;;;6.53;100.00;96875.75;5228006;28;20660;-65
2023/03/27 01:42:18;;;;;;;2.80;2.70;;;6.00;99.90;;;6.58;100.00;96876.03;5234119;28;20203;-65
2023/03/27 01:44:59;;;;;;;2.70;2.60;;;6.10;99.90;;;6.54;100.00;96884.25;5238196;28;20216;-66
2023/03/27 01:47:42;;;;;;;2.23;2.13;;;6.00;99.90;;;6.41;100.00;96887.75;5236808;28;20205;-66
2023/03/27 01:50:20;;;;;;;2.40;2.30;;;5.90;99.90;;;6.54;100.00;96892.72;5237116;28;20196;-64
2023/03/27 01:52:58;;;;;;;2.40;2.30;;;5.90;99.90;;;6.43;100.00;96901.38;5228823;28;20312;-65
2023/03/27 01:55:36;;;;;;;2.50;2.40;;;5.80;99.90;;;6.42;100.00;96914.00;5231903;28;20339;-65
2023/03/27 01:58:13;;;;;;;2.33;2.23;;;5.80;99.90;;;6.39;100.00;96923.97;5234534;28;20546;-64
2023/03/27 02:00:52;;;;;;;2.20;2.10;;;5.70;99.90;;;6.36;100.00;96933.97;5233253;28;20208;-65
2023/03/27 02:03:32;;;;;;;2.03;1.93;;;5.70;99.90;;;6.23;100.00;96938.31;5230873;28;20232;-64
2023/03/27 02:06:10;;;;;;;2.50;2.40;;;5.60;99.90;;;6.17;100.00;96944.69;5237609;28;20204;-65
2023/03/27 02:08:50;;;;;;;2.50;2.40;;;5.60;99.90;;;6.07;100.00;96948.34;5232389;28;20230;-66
2023/03/27 02:11:29;;;;;;;2.40;2.30;;;5.50;99.90;;;5.84;100.00;96963.03;5234415;28;20201;-65
2023/03/27 02:14:07;;;;;;;2.33;2.23;;;5.40;99.90;;;5.82;100.00;96961.19;5240349;28;20217;-65
2023/03/27 02:16:45;;;;;;;2.20;2.10;;;5.30;99.90;;;5.67;100.00;96972.94;5233207;28;20200;-63
2023/03/27 02:19:24;;;;;;;2.53;2.43;;;5.20;99.90;;;5.70;100.00;96976.53;5228703;28;20205;-64
2023/03/27 02:21:57;;;;;;;2.67;2.57;;;5.20;99.90;;;5.59;100.00;96986.00;5232020;28;20242;-65
2023/03/27 02:24:31;;;;;;;2.73;2.63;;;5.20;99.90;;;5.67;100.00;96993.22;5232458;28;20697;-64
2023/03/27 02:27:14;;;;;;;2.47;2.37;;;5.10;99.90;;;5.68;100.00;97000.91;5227318;28;20573;-66
2023/03/27 02:30:02;;;;;;;2.50;2.40;;;5.10;99.90;;;5.64;100.00;97004.03;5226981;28;20216;-64
2023/03/27 02:32:45;;;;;;;2.80;2.60;;;5.10;99.90;;;5.56;100.00;97005.22;5237027;28;20638;-65
2023/03/27 02:35:34;;;;;;;2.47;2.37;;;5.00;99.90;;;5.58;100.00;97024.81;5229894;28;20217;-65
2023/03/27 02:38:14;;;;;;;2.63;2.53;;;5.00;99.90;;;5.33;100.00;97032.53;5231095;28;20540;-66
2023/03/27 02:40:57;;;;;;;2.30;2.20;;;4.90;99.90;;;5.28;100.00;97038.06;5233294;28;20225;-66
2023/03/27 02:43:38;;;;;;;2.80;2.63;;;4.80;99.90;;;5.25;100.00;97048.88;5233992;28;20562;-65
2023/03/27 02:46:17;;;;;;;2.70;2.60;;;4.70;99.90;;;5.26;100.00;97053.16;5233165;28;20313;-66
2023/03/27 02:48:55;;;;;;;2.87;2.77;;;4.70;99.90;;;5.18;100.00;97067.00;5232150;28;20221;-64
2023/03/27 02:51:32;;;;;;;3.07;2.93;;;4.60;99.90;;;5.22;100.00;97071.47;5227096;28;20200;-64
2023/03/27 02:54:10;;;;;;;3.10;3.00;;;4.70;99.90;;;5.29;100.00;97080.34;5237014;28;20709;-64
2023/03/27 02:56:48;;;;;;;3.00;2.80;;;4.80;99.90;;;5.23;100.00;97090.97;5232082;28;20286;-64
2023/03/27 02:59:29;;;;;;;3.37;3.17;;;4.70;99.90;;;5.21;100.00;97097.59;5232484;28;20217;-64
2023/03/27 03:02:03;;;;;;;3.20;3.00;;;4.70;99.90;;;5.26;100.00;97096.22;5232383;28;20235;-65
2023/03/27 03:04:45;;;;;;;3.30;3.10;;;4.70;99.90;;;5.14;100.00;97103.03;5236579;28;20273;-65
2023/03/27 03:07:18;;;;;;;3.83;3.33;;;4.60;99.90;;;5.14;100.00;97121.63;5237517;28;20227;-65
2023/03/27 03:09:51;;;;;;;3.50;3.20;;;4.60;99.90;;;5.16;100.00;97130.22;5235030;28;20225;-65
2023/03/27 03:12:24;;;;;;;3.80;3.50;;;4.60;99.90;;;5.15;100.00;97133.53;5229515;28;20249;-65
2023/03/27 03:14:59;;;;;;;4.30;3.50;;;4.50;99.90;;;5.10;100.00;97134.03;5232450;28;20313;-63
2023/03/27 03:17:32;;;;;;;3.50;3.30;;;4.50;99.90;;;5.05;100.00;97153.97;5233283;28;20684;-65
2023/03/27 03:20:08;;;;;;;4.10;3.90;;;4.50;99.90;;;5.17;100.00;97161.50;5234371;28;20710;-65
2023/03/27 03:22:41;;;;;;;3.30;3.10;;;4.50;99.90;;;5.04;100.00;97169.06;5223857;28;20196;-64
2023/03/27 03:25:14;;;;;;;3.83;3.63;;;4.40;99.90;;;4.86;100.00;97164.50;5234162;28;21972;-65
2023/03/27 03:27:47;;;;;;;4.23;3.93;;;4.30;99.90;;;4.82;100.00;97172.69;5236367;28;20204;-66
2023/03/27 03:30:22;;;;;;;4.53;4.13;;;4.30;99.90;;;4.81;100.00;97186.13;5235868;28;20572;-65
2023/03/27 03:32:56;;;;;;;3.87;3.57;;;4.20;99.90;;;4.77;100.00;97189.19;5237498;28;20203;-65
2023/03/27 03:35:29;;;;;;;4.07;3.77;;;4.20;99.90;;;4.73;100.00;97197.38;5231399;28;20220;-64
2023/03/27 03:38:02;;;;;;;4.63;4.23;;;4.20;99.90;;;4.68;100.00;97202.09;5223970;28;20272;-66
2023/03/27 03:40:36;;;;;;;4.53;4.13;;;4.10;99.90;;;4.66;100.00;97207.84;5225947;28;20319;-62
2023/03/27 03:43:09;;;;;;;5.03;4.63;;;4.10;99.90;;;4.68;100.00;97213.88;5232594;28;20441;-65
2023/03/27 03:45:43;;;;;;;4.90;4.40;;;4.20;99.90;;;4.82;100.00;97223.31;5224372;28;20763;-64
2023/03/27 03:48:16;;;;;;;5.07;4.57;;;4.30;99.90;;;4.81;100.00;97229.16;5228049;28;20290;-65
2023/03/27 03:50:50;;;;;;;5.57;5.07;;;4.30;99.90;;;4.64;100.00;97235.59;5228024;28;20211;-63
2023/03/27 03:53:23;;;;;;;5.90;4.80;;;4.10;99.90;;;4.64;100.00;97260.00;5227540;28;20657;-65
2023/03/27 03:55:56;;;;;;;6.27;4.40;;;4.10;99.90;;;4.48;100.00;97265.63;5233396;28;20208;-64
2023/03/27 03:58:30;;;;;;;5.10;4.57;;;3.90;99.90;;;4.36;100.00;97274.91;5227764;28;20904;-65
2023/03/27 04:01:09;;;;;;;5.00;4.60;;;3.80;99.90;;;4.50;100.00;97284.34;5233257;28;20205;-65
2023/03/27 04:03:42;;;;;;;7.20;4.63;;;3.80;99.90;;;4.43;100.00;97289.72;5228335;28;20221;-65
2023/03/27 04:06:19;;;;;;;6.43;4.50;;;3.80;99.90;;;4.39;100.00;97316.47;5240124;28;20671;-64
2023/03/27 04:08:53;;;;;;;4.43;4.03;;;3.80;99.90;;;4.26;100.00;97323.94;5235630;28;20263;-65
2023/03/27 04:11:26;;;;;;;4.60;4.20;;;3.60;99.90;;;4.09;100.00;97329.41;5220092;28;20280;-64
2023/03/27 04:13:59;;;;;;;5.87;4.60;;;3.50;99.90;;;4.01;100.00;97336.47;5229684;28;21316;-65
2023/03/27 04:16:34;;;;;;;4.47;4.07;;;3.50;99.90;;;4.04;100.00;97347.66;5243051;28;20546;-65
2023/03/27 04:19:07;;;;;;;6.10;4.10;;;3.50;99.90;;;4.16;100.00;97352.75;5230074;28;20208;-66
2023/03/27 04:21:41;;;;;;;5.80;4.67;;;3.50;99.90;;;4.17;100.00;97354.50;5233842;28;20316;-64
2023/03/27 04:24:17;;;;;;;6.03;4.23;;;3.40;99.90;;;3.93;100.00;97352.72;5241281;28;20257;-66
2023/03/27 04:26:50;;;;;;;7.37;4.53;;;3.30;99.90;;;3.77;100.00;97376.81;5237516;28;20214;-63
2023/03/27 04:29:23;;;;;;;6.83;4.83;;;3.10;99.90;;;3.78;100.00;97376.06;5233991;28;20206;-65
2023/03/27 04:31:57;;;;;;;6.97;4.23;;;3.10;99.90;;;3.85;100.00;97379.94;5236425;28;20661;-62
2023/03/27 04:34:31;;;;;;;8.23;4.57;;;3.10;99.90;;;3.81;100.00;97388.06;5235692;28;20285;-64
2023/03/27 04:37:04;;;;;;;6.37;4.60;;;3.10;99.90;;;3.87;100.00;97403.69;5232745;28;20288;-63
2023/03/27 04:39:41;;;;;;;8.33;5.03;;;3.20;99.90;;;3.79;100.00;97404.75;5228843;28;20209;-66
2023/03/27 04:42:15;;;;;;;8.40;4.67;;;3.20;99.90;;;3.85;100.00;97412.78;5234416;28;20731;-65
2023/03/27 04:44:48;;;;;;;12.67;4.73;;;3.20;99.90;;;3.97;100.00;97417.88;5238371;28;20348;-63
2023/03/27 04:47:22;;;;;;;8.03;4.73;;;3.20;99.90;;;3.92;100.00;97422.63;5236920;28;20208;-65
2023/03/27 04:49:58;;;;;;;5.97;4.60;;;3.20;99.90;;;3.80;100.00;97436.84;5235681;28;20196;-63
2023/03/27 04:52:32;;;;;;;7.97;5.53;;;3.20;99.90;;;3.76;100.00;97455.06;5228375;28;20585;-62
2023/03/27 04:55:07;;;;;;;9.10;5.90;;;3.20;99.90;;;3.81;100.00;97459.72;5234697;28;20240;-65
2023/03/27 04:57:41;;;;;;;11.43;6.17;;;3.10;99.90;;;3.65;100.00;97471.94;5233035;28;20684;-60
2023/03/27 05:00:17;;;;;;;10.43;5.40;;;3.10;99.90;;;3.60;100.00;97476.63;5231249;28;20223;-64
2023/03/27 05:02:54;;;;;;;10.57;6.03;;;3.00;99.90;;;3.68;100.00;97479.75;5238727;28;20660;-64
2023/03/27 05:05:28;;;;;;;9.20;5.10;;;3.10;99.90;;;3.68;100.00;97483.94;5237240;28;20217;-63
2023/03/27 05:08:01;;;;;;;10.63;5.57;;;3.10;99.90;;;3.58;100.00;97490.81;5238194;28;20369;-63
2023/03/27 05:10:35;;;;;;;11.67;5.93;;;3.00;99.90;;;3.61;100.00;97485.97;5233501;28;20196;-65
2023/03/27 05:13:08;;;;;;;9.17;6.00;;;3.00;99.90;;;3.53;100.00;97509.75;5236813;28;20227;-64
2023/03/27 05:15:41;;;;;;;12.10;6.60;;;3.00;99.90;;;3.49;100.00;97520.41;5233657;28;20614;-63
2023/03/27 05:18:16;;;;;;;9.40;5.67;;;2.90;99.90;;;3.45;100.00;97527.63;5232377;28;20235;-64
2023/03/27 05:20:49;;;;;;;8.57;5.67;;;2.90;99.90;;;3.41;100.00;97535.72;5227844;28;20220;-65
2023/03/27 05:23:22;;;;;;;9.87;5.00;;;2.80;99.90;;;3.37;100.00;97544.69;5236721;28;20201;-65
2023/03/27 05:25:55;;;;;;;10.23;5.80;;;2.90;99.90;;;3.55;100.00;97546.16;5237141;28;20205;-65
2023/03/27 05:28:32;;;;;;;11.30;5.87;;;2.90;99.90;;;3.54;100.00;97559.53;5233767;28;20200;-64
2023/03/27 05:31:09;;;;;;;9.47;5.00;;;2.90;99.90;;;3.29;100.00;97560.88;5232520;28;20711;-63
2023/03/27 05:33:44;;;;;;;11.93;5.53;;;2.70;99.90;;;3.33;100.00;97578.03;5233806;28;20218;-65
2023/03/27 05:36:17;;;;;;;8.70;5.63;;;2.80;99.90;;;3.32;100.00;97583.84;5236444;28;20751;-64
2023/03/27 05:38:51;;;;;;;11.87;5.90;;;2.80;99.90;;;3.34;100.00;97584.84;5241271;28;20208;-66
2023/03/27 05:41:25;;;;;;;10.10;5.37;;;2.80;99.90;;;3.51;100.00;97589.59;5235407;28;20223;-65
2023/03/27 05:43:58;;;;;;;8.90;5.33;;;2.90;99.90;;;3.39;100.00;97613.91;5232451;28;20232;-63
2023/03/27 05:46:31;;;;;;;10.20;5.50;;;2.90;99.90;;;3.36;100.00;97599.38;5233532;28;20620;-65
2023/03/27 05:49:06;;;;;;;9.70;5.70;;;2.80;99.90;;;3.27;100.00;97623.91;5235891;28;20209;-63
2023/03/27 05:51:39;;;;;;;9.37;5.47;;;2.70;99.90;;;3.05;100.00;97623.78;5232593;28;20655;-64
2023/03/27 05:54:19;;;;;;;10.83;5.30;;;2.50;99.90;;;3.09;100.00;97627.44;5230782;28;20571;-65
2023/03/27 05:56:52;;;;;;;9.57;5.20;;;2.50;99.90;;;3.15;100.00;97633.88;5238260;28;20205;-65
2023/03/27 05:59:25;;;;;;;7.97;5.83;;;2.60;99.90;;;3.19;100.00;97642.59;5231348;28;20199;-64
2023/03/27 06:01:58;;;;;;;8.23;5.10;;;2.60;99.90;;;3.16;100.00;97642.34;5233750;28;20226;-62
2023/03/27 06:04:32;;;;;;;10.57;5.73;;;2.60;99.90;;;3.14;100.00;97647.25;5238108;28;20242;-65
2023/03/27 06:07:06;;;;;;;7.53;4.87;;;2.60;99.90;;;3.22;100.00;97655.47;5236260;28;20621;-65
2023/03/27 06:09:39;;;;;;;8.07;5.03;;;2.60;99.90;;;3.24;100.00;97653.06;5238422;28;20207;-65
2023/03/27 06:12:12;;;;;;;9.03;5.07;;;2.70;99.90;;;3.46;100.00;97659.09;5233616;28;20195;-64
2023/03/27 06:14:45;;;;;;;8.00;5.60;;;2.70;99.90;;;3.49;100.00;97672.00;5239363;28;20335;-64
2023/03/27 06:17:18;;;;;;;6.23;4.63;;;2.80;99.90;;;3.37;100.00;97676.91;5234835;28;20594;-64
2023/03/27 06:19:52;;;;;;;10.13;5.50;;;2.80;99.90;;;3.36;100.00;97679.31;5240251;28;20267;-64
2023/03/27 06:22:26;;;;;;;7.20;5.27;;;2.70;99.90;;;3.33;100.00;97684.13;5240594;28;20215;-63
2023/03/27 06:24:59;;;;;;;7.37;5.17;;;2.80;99.90;;;3.41;100.00;97695.75;5238058;28;20239;-61
2023/03/27 06:27:32;;;;;;;9.03;5.20;;;2.80;99.90;;;3.44;100.00;97693.47;5230556;28;20296;-64
2023/03/27 06:30:08;;;;;;;11.33;5.63;;;2.90;99.90;;;3.45;100.00;97710.38;5230550;28;20246;-62
2023/03/27 06:32:44;;;;;;;9.07;6.00;;;2.90;99.90;;;3.41;100.00;97713.41;5235623;28;20226;-64
2023/03/27 06:35:20;;;;;;;9.67;5.23;;;2.90;99.90;;;3.59;100.00;97714.91;5229435;28;20217;-62
2023/03/27 06:37:54;;;;;;;8.43;4.90;;;3.00;99.90;;;3.64;100.00;97714.41;5226021;28;20200;-64
2023/03/27 06:40:30;;;;;;;10.97;5.50;;;3.00;99.90;;;3.61;100.00;97722.63;5234100;28;20775;-64
2023/03/27 06:43:06;;;;;;;8.77;5.00;;;3.00;99.90;;;3.57;100.00;97718.94;5234674;28;20320;-62
2023/03/27 06:45:43;;;;;;;8.97;5.33;;;2.90;99.90;;;3.59;100.00;97737.66;5232495;28;20754;-62
2023/03/27 06:48:18;;;;;;;10.90;5.90;;;3.00;99.90;;;3.52;100.00;97747.13;5233199;28;20205;-62
2023/03/27 06:50:56;;;;;;;9.03;5.30;;;2.90;99.90;;;3.38;100.00;97753.59;5233891;28;20650;-65
2023/03/27 06:53:29;;;;;;;9.17;4.93;;;2.80;99.90;;;3.42;100.00;97755.59;5229538;28;20290;-66
2023/03/27 06:56:09;;;;;;;8.07;5.40;;;2.80;99.90;;;3.41;100.00;97761.41;5233789;28;20197;-66
2023/03/27 06:58:42;;;;;;;8.77;5.80;;;2.80;99.90;;;3.52;100.00;97767.34;5226551;28;20764;-62
2023/03/27 07:01:15;;;;;;;10.53;5.80;;;2.80;99.90;;;3.47;100.00;97772.03;5231155;28;20220;-65
2023/03/27 07:03:48;;;;;;;8.87;5.20;;;2.80;99.90;;;3.50;100.00;97784.91;5236288;28;20650;-66
2023/03/27 07:06:24;;;;;;;9.13;5.03;;;2.80;99.90;;;3.50;100.00;97782.38;5230946;28;20201;-66
2023/03/27 07:08:57;;;;;;;9.23;5.40;;;2.80;99.90;;;3.55;100.00;97781.13;5232390;28;20208;-66
2023/03/27 07:11:30;;;;;;;10.30;5.17;;;2.90;99.90;;;3.68;100.00;97784.66;5234524;28;20226;-66
2023/03/27 07:14:04;;;;;;;7.07;4.90;;;2.90;99.90;;;3.63;100.00;97790.97;5231464;28;20357;-66
2023/03/27 07:16:37;;;;;;;9.77;5.50;;;2.90;99.90;;;3.65;100.00;97799.56;5230821;28;20614;-65
2023/03/27 07:19:10;;;;;;;7.73;4.77;;;2.90;99.90;;;3.64;100.00;97802.88;5234325;28;20294;-63
2023/03/27 07:21:44;;;;;;;6.90;5.40;;;2.90;99.90;;;3.64;100.00;97818.03;5234164;28;20307;-61
2023/03/27 07:24:17;;;;;;;6.77;5.00;;;3.00;99.90;;;3.67;100.00;97824.22;5227538;28;20219;-62
2023/03/27 07:26:50;;;;;;;12.27;5.17;;;3.00;99.90;;;3.80;100.00;97832.03;5227615;28;20214;-63
2023/03/27 07:29:24;;;;;;;9.13;4.10;;;3.10;99.90;;;3.78;100.00;97831.03;5227772;28;20676;-63
2023/03/27 07:31:57;;;;;;;8.20;4.73;;;3.10;99.90;;;3.73;100.00;97837.34;5238389;28;20744;-65
2023/03/27 07:34:36;;;;;;;7.17;5.07;;;3.10;99.90;;;3.73;100.00;97842.41;5236361;28;20246;-62
2023/03/27 07:37:11;;;;;;;7.30;4.43;;;3.10;99.90;;;3.86;100.00;97848.47;5235904;28;20211;-64
2023/03/27 07:39:44;;;;;;;9.03;4.97;;;3.10;99.90;;;3.83;100.00;97861.72;5228817;28;20703;-63
2023/03/27 07:42:18;;;;;;;9.50;5.17;;;3.10;99.90;;;3.84;100.00;97868.56;5235904;28;20223;-64
2023/03/27 07:44:51;;;;;;;8.90;4.43;;;3.10;99.90;;;3.75;100.00;97867.78;5224267;28;20227;-63
2023/03/27 07:47:24;;;;;;;7.37;4.90;;;2.90;99.90;;;3.67;100.00;97879.81;5229712;28;20226;-65
2023/03/27 07:49:57;;;;;;;7.80;4.33;;;3.00;99.90;;;3.73;100.00;97890.44;5241111;28;20246;-64
2023/03/27 07:52:33;;;;;;;9.47;4.57;;;3.00;99.90;;;3.70;100.00;97894.34;5228795;28;20279;-65
2023/03/27 07:55:08;;;;;;;8.73;4.63;;;3.00;99.90;;;3.70;100.00;97900.28;5233102;28;20220;-64
2023/03/27 07:57:44;;;;;;;7.30;4.87;;;3.00;99.90;;;3.78;100.00;97906.00;5240109;28;20203;-64
2023/03/27 08:00:34;;;;;;;8.10;4.63;;;3.00;99.90;;;3.79;100.00;97900.16;5232003;28;20673;-63
2023/03/27 08:03:10;;;;;;;9.10;4.93;;;3.00;99.90;;;3.80;100.00;97906.97;5234928;28;20502;-62
2023/03/27 08:05:44;;;;;;;8.63;5.07;;;3.10;99.90;;;3.87;100.00;97914.34;5231980;28;20297;-64
2023/03/27 08:08:18;;;;;;;11.53;4.97;;;3.10;99.90;;;3.66;100.00;97917.56;5230560;28;20488;-64
2023/03/27 08:10:55;;;;;;;10.73;4.77;;;3.00;99.90;;;3.67;100.00;97925.31;5235437;28;20208;-64
2023/03/27 08:13:29;;;;;;;11.00;5.00;;;3.00;99.90;;;3.64;100.00;97925.03;5230164;28;20200;-64
2023/03/27 08:16:04;;;;;;;6.83;4.23;;;3.00;99.90;;;3.80;100.00;97937.31;5222380;28;20197;-64
2023/03/27 08:18:38;;;;;;;7.90;4.50;;;3.10;99.90;;;3.81;100.00;97934.06;5232137;28;20207;-64
2023/03/27 08:21:11;;;;;;;7.03;4.07;;;3.10;99.90;;;3.93;100.00;97935.06;5231821;28;20226;-62
2023/03/27 08:23:46;;;;;;;10.20;4.20;;;3.20;99.90;;;4.11;100.00;97940.75;5231881;28;20309;-63
2023/03/27 08:26:19;;;;;;;8.47;4.43;;;3.40;99.90;;;4.19;100.00;97942.28;5230914;28;20672;-64
2023/03/27 08:28:54;;;;;;;6.30;4.17;;;3.50;99.90;;;4.15;98.88;97954.53;5229400;28;20500;-64
2023/03/27 08:31:29;;;;;;;6.30;4.43;;;3.50;99.90;;;4.44;100.00;97957.84;5234136;28;20197;-65
2023/03/27 08:34:03;;;;;;;7.13;4.57;;;3.70;99.90;;;4.64;99.86;97961.13;5234427;28;20346;-62
2023/03/27 08:36:37;;;;;;;7.70;4.53;;;3.90;99.90;;;4.85;100.00;97961.97;5231500;28;20228;-65
2023/03/27 08:39:11;;;;;;;5.60;4.00;;;4.10;99.90;;;4.91;98.17;97973.47;5228894;28;20212;-64
2023/03/27 08:41:53;;;;;;;8.07;4.67;;;4.20;99.90;;;5.13;100.00;97975.19;5231885;28;20197;-65
2023/03/27 08:44:30;;;;;;;4.10;3.73;;;4.30;99.90;;;5.23;100.00;97976.81;5229971;28;20259;-65
2023/03/27 08:47:09;;;;;;;8.43;4.30;;;4.50;99.90;;;5.34;97.48;97976.88;5226622;28;20200;-63
2023/03/27 08:49:48;;;;;;;7.40;4.10;;;4.70;99.90;;;5.58;100.00;97971.94;5233641;28;20296;-65
2023/03/27 08:52:24;;;;;;;5.73;4.27;;;4.80;99.90;;;5.77;99.27;97972.63;5231483;28;20202;-65
2023/03/27 08:55:05;;;;;;;7.87;4.07;;;5.10;99.90;;;6.05;100.00;97987.47;5224296;28;20722;-65
2023/03/27 08:57:38;;;;;;;4.30;3.47;;;5.40;99.90;;;6.03;89.60;97989.88;5228129;28;20219;-64
2023/03/27 09:00:22;;;;;;;4.33;3.40;;;5.50;99.90;;;5.98;87.81;97985.22;5234490;28;20210;-65
2023/03/27 09:03:05;;;;;;;5.83;3.70;;;5.40;99.90;;;6.01;87.11;97995.59;5234121;28;20220;-65
2023/03/27 09:05:43;;;;;;;5.00;3.30;;;5.40;99.90;;;6.34;91.77;97991.31;5231264;28;20225;-65
2023/03/27 09:08:31;;;;;;;5.50;3.43;;;5.80;99.90;;;6.65;91.00;98000.47;5238135;28;20205;-61
2023/03/27 09:11:18;;;;;;;8.90;3.50;;;6.00;99.90;;;6.51;85.58;98001.09;5228653;28;20201;-64
2023/03/27 09:13:54;;;;;;;4.93;3.47;;;5.90;99.90;;;6.25;79.92;98007.63;5238008;28;20224;-64
2023/03/27 09:16:32;;;;;;;7.13;3.50;;;5.70;99.90;;;6.32;84.15;98009.88;5241040;28;20283;-66
2023/03/27 09:19:15;;;;;;;4.73;3.17;;;5.60;99.90;;;6.25;80.65;98015.25;5239499;28;20204;-65
2023/03/27 09:21:51;;;;;;;4.83;3.50;;;5.60;99.90;;;6.16;79.49;98017.09;5236337;28;20209;-64
2023/03/27 09:24:32;;;;;;;5.40;3.33;;;5.60;99.90;;;6.30;83.88;98016.47;5226192;28;20270;-64
2023/03/27 09:27:17;;;;;;;6.03;3.07;;;5.70;99.90;;;6.40;81.65;98012.97;5227286;28;20279;-65
2023/03/27 09:30:01;;;;;;;7.70;3.27;;;5.70;99.90;;;6.17;76.06;98018.84;5230846;28;20201;-64
2023/03/27 09:32:38;;;;;;;8.23;3.73;;;5.60;99.90;;;6.22;82.68;98020.09;5233912;28;20224;-64
2023/03/27 09:35:14;;;;;;;3.87;3.47;;;5.60;99.90;;;6.50;76.44;98019.66;5231486;28;20224;-65
2023/03/27 09:37:48;;;;;;;4.27;3.17;;;5.90;99.90;;;6.70;80.55;98024.56;5237501;28;20196;-64
2023/03/27 09:40:29;;;;;;;6.53;3.60;;;6.10;99.90;;;6.41;71.47;98029.09;5226757;28;20213;-65
2023/03/27 09:43:08;;;;;;;4.23;2.63;;;5.80;99.90;;;6.37;72.08;98034.72;5228631;28;20770;-65
2023/03/27 09:45:43;;;;;;;4.30;3.00;;;5.80;99.90;;;6.58;81.81;98031.28;5228319;28;20231;-65
2023/03/27 09:48:28;;;;;;;5.47;2.80;;;6.00;99.90;;;6.61;71.88;98028.94;5235771;28;20291;-61
2023/03/27 09:51:02;;;;;;;5.30;3.10;;;6.00;99.90;;;6.41;68.62;98042.69;5238132;28;20209;-63
2023/03/27 09:53:37;;;;;;;5.57;3.00;;;5.90;99.90;;;6.48;71.37;98042.38;5227216;28;20291;-65
2023/03/27 09:56:15;;;;;;;4.03;3.00;;;6.00;99.90;;;6.85;75.26;98051.88;5222916;28;20208;-65
2023/03/27 09:58:50;;;;;;;5.77;2.80;;;6.30;99.90;;;7.10;70.54;98047.81;5236672;28;20394;-64
2023/03/27 10:01:33;;;;;;;5.43;3.40;;;6.50;99.90;;;7.36;72.14;98053.94;5234366;28;20204;-64
2023/03/27 10:04:15;;;;;;;5.70;2.87;;;6.80;99.90;;;7.18;70.66;98050.91;5235945;28;20236;-63
2023/03/27 10:06:52;;;;;;;6.13;2.80;;;6.60;99.90;;;7.36;69.42;98056.47;5236616;28;20312;-65
2023/03/27 10:09:28;;;;;;;5.13;3.10;;;6.70;99.90;;;7.30;65.70;98062.00;5226273;28;20724;-66
2023/03/27 10:12:09;;;;;;;4.27;2.53;;;6.60;99.90;;;7.33;62.71;98061.34;5227746;28;20189;-64
2023/03/27 10:14:46;;;;;;;3.30;2.93;;;6.60;99.90;;;7.40;64.92;98068.63;5233395;28;20311;-65
2023/03/27 10:17:25;;;;;;;3.63;2.33;;;6.70;99.90;;;7.44;65.85;98065.53;5230259;28;20200;-65
2023/03/27 10:20:07;;;;;;;4.43;2.97;;;6.70;99.90;;;7.20;62.72;98067.16;5228733;28;20719;-63
2023/03/27 10:22:43;;;;;;;3.73;2.40;;;6.60;99.90;;;7.32;64.53;98064.63;5226807;28;20232;-64
2023/03/27 10:25:20;;;;;;;3.43;2.27;;;6.60;99.90;;;7.35;64.21;98069.94;5237482;28;20219;-64
2023/03/27 10:27:54;;;;;;;5.73;2.47;;;6.80;99.90;;;7.59;68.58;98056.47;5227440;28;20794;-63
2023/03/27 10:30:33;;;;;;;4.97;3.27;;;6.90;99.90;;;7.44;60.42;98068.09;5221171;28;20248;-64
2023/03/27 10:33:07;;;;;;;3.33;3.03;;;6.90;99.90;;;7.54;67.87;98067.06;5230425;28;20727;-64
2023/03/27 10:35:44;;;;;;;4.83;2.20;;;6.80;99.90;;;7.58;66.06;98077.59;5230290;28;20217;-64
2023/03/27 10:38:18;;;;;;;3.60;2.40;;;6.70;99.90;;;7.57;64.68;98083.44;5230278;28;20247;-64
2023/03/27 10:40:52;;;;;;;4.77;2.43;;;6.70;99.90;;;7.48;59.39;98087.84;5229193;28;20283;-64
2023/03/27 10:43:32;;;;;;;4.17;2.40;;;6.70;99.90;;;7.00;56.72;98081.81;5226551;28;20262;-65
2023/03/27 10:46:11;;;;;;;4.07;2.70;;;6.40;99.70;;;7.04;59.25;98088.03;5229238;28;20292;-65
2023/03/27 10:48:54;;;;;;;6.03;2.40;;;6.20;99.90;;;7.28;63.86;98088.94;5234407;28;20600;-64
2023/03/27 10:51:38;;;;;;;3.77;2.97;;;6.40;99.90;;;7.46;59.55;98097.03;5231795;28;20204;-63
2023/03/27 10:54:34;;;;;;;4.57;2.47;;;6.50;99.90;;;7.09;60.03;98101.94;5233231;28;20227;-64
2023/03/27 10:57:14;;;;;;;5.10;2.53;;;6.30;99.90;;;7.20;61.53;98096.00;5235143;28;20225;-64
2023/03/27 10:59:54;;;;;;;5.10;3.20;;;6.40;99.90;;;7.20;58.38;98088.38;5238333;28;20206;-64
2023/03/27 11:02:38;;;;;;;5.50;2.57;;;6.60;99.90;;;7.54;62.56;98085.75;5226077;28;20270;-63
2023/03/27 11:05:16;;;;;;;4.23;2.53;;;6.80;99.90;;;7.66;59.12;98099.34;5235466;28;20772;-65
2023/03/27 11:07:54;;;;;;;6.50;2.47;;;6.90;99.90;;;7.85;57.72;98095.59;5227276;28;20201;-62
2023/03/27 11:10:33;;;;;;;4.10;2.57;;;7.00;99.90;;;7.82;55.61;98105.56;5232334;28;20287;-64